createdAt,value
2023-01-18T00:02:37.436Z,3.8
2023-01-18T00:05:39.442Z,3.4
2023-01-18T00:08:41.367Z,3.6
2023-01-18T00:11:43.304Z,3.3
2023-01-18T00:14:45.268Z,3.6
2023-01-18T00:17:47.229Z,3.4
2023-01-18T00:20:49.183Z,3.2
2023-01-18T00:23:51.138Z,3.5
2023-01-18T00:26:53.087Z,3.3
2023-01-18T00:29:55.048Z,3.9
2023-01-18T00:32:57.367Z,3.6
2023-01-18T00:35:58.984Z,3.3
2023-01-18T00:39:00.929Z,3
2023-01-18T00:42:02.908Z,3.7
2023-01-18T00:45:04.910Z,3.3
2023-01-18T00:48:06.817Z,3.2
2023-01-18T00:51:08.873Z,3.8
2023-01-18T00:54:10.747Z,3.8
2023-01-18T00:57:12.717Z,3.2
2023-01-18T01:00:14.692Z,3.1
2023-01-18T01:03:16.649Z,3.1
2023-01-18T01:06:18.605Z,3.2
2023-01-18T01:09:20.576Z,3
2023-01-18T01:12:22.519Z,3.4
2023-01-18T01:15:24.469Z,3.3
2023-01-18T01:18:26.438Z,3.3
2023-01-18T01:21:28.397Z,3.4
2023-01-18T01:24:30.361Z,3.6
2023-01-18T01:27:32.325Z,3.6
2023-01-18T01:30:34.278Z,3.3
2023-01-18T01:33:36.244Z,2.8
2023-01-18T01:36:38.192Z,3
2023-01-18T01:39:40.142Z,3.3
2023-01-18T01:42:42.209Z,3.2
2023-01-18T01:45:44.117Z,3.1
2023-01-18T01:48:46.014Z,3.1
2023-01-18T01:51:47.981Z,3.2
2023-01-18T01:54:49.926Z,3.3
2023-01-18T01:57:51.898Z,3.1
2023-01-18T02:00:53.959Z,3.1
2023-01-18T02:03:55.822Z,3.2
2023-01-18T02:06:57.781Z,3.3
2023-01-18T02:09:59.720Z,3.1
2023-01-18T02:13:01.730Z,3.1
2023-01-18T02:16:03.673Z,3.9
2023-01-18T02:19:05.637Z,3.6
2023-01-18T02:22:07.672Z,3.5
2023-01-18T02:25:09.551Z,3.8
2023-01-18T02:28:11.519Z,3.8
2023-01-18T02:31:13.539Z,4.1
2023-01-18T02:34:15.435Z,3.8
2023-01-18T02:37:17.391Z,3.7
2023-01-18T02:40:19.398Z,3.6
2023-01-18T02:43:21.328Z,3.8
2023-01-18T02:46:23.300Z,3.6
2023-01-18T02:49:25.234Z,3.9
2023-01-18T02:52:27.210Z,3.1
2023-01-18T02:55:29.169Z,3.5
2023-01-18T02:58:31.142Z,3.4
2023-01-18T03:01:33.159Z,3.6
2023-01-18T03:04:35.076Z,3.5
2023-01-18T03:07:37.003Z,3.8
2023-01-18T03:10:38.975Z,3.6
2023-01-18T03:13:40.962Z,3.6
2023-01-18T03:16:42.875Z,3.3
2023-01-18T03:19:44.846Z,3.1
2023-01-18T03:22:46.813Z,3.2
2023-01-18T03:25:48.765Z,4
2023-01-18T03:28:50.739Z,3
2023-01-18T03:31:52.687Z,3.3
2023-01-18T03:34:54.652Z,3.2
2023-01-18T03:37:56.637Z,3.3
2023-01-18T03:40:58.594Z,3.4
2023-01-18T03:44:00.562Z,3.4
2023-01-18T03:47:02.535Z,3.3
2023-01-18T03:50:04.499Z,3.9
2023-01-18T03:53:06.479Z,4.1
2023-01-18T03:56:08.443Z,3.4
2023-01-18T03:59:10.426Z,3.4
2023-01-18T04:02:12.357Z,3.4
2023-01-18T04:05:14.343Z,3.2
2023-01-18T04:08:16.308Z,3.4
2023-01-18T04:11:18.259Z,3.1
2023-01-18T04:14:20.215Z,3.4
2023-01-18T04:17:22.183Z,3.3
2023-01-18T04:20:24.130Z,3.5
2023-01-18T04:23:26.106Z,3.3
2023-01-18T04:26:28.059Z,3.5
2023-01-18T04:29:30.033Z,3.4
2023-01-18T04:32:31.990Z,3.4
2023-01-18T04:35:33.966Z,3.2
2023-01-18T04:38:35.946Z,3.3
2023-01-18T04:41:37.896Z,3.5
2023-01-18T04:44:39.861Z,3.2
2023-01-18T04:47:41.807Z,3.2
2023-01-18T04:50:43.795Z,3.5
2023-01-18T04:53:45.760Z,3.2
2023-01-18T04:56:47.722Z,3.1
2023-01-18T04:59:49.775Z,3.9
2023-01-18T05:02:51.642Z,2.9
2023-01-18T05:05:53.626Z,2.7
2023-01-18T05:08:55.595Z,2.5
2023-01-18T05:11:57.572Z,2.5
2023-01-18T05:14:59.524Z,2.5
2023-01-18T05:18:01.479Z,2.4
2023-01-18T05:21:03.475Z,3
2023-01-18T05:24:05.432Z,2.5
2023-01-18T05:27:07.413Z,2.7
2023-01-18T05:30:09.370Z,2.1
2023-01-18T05:33:11.322Z,2.2
2023-01-18T05:36:13.322Z,2.4
2023-01-18T05:39:15.274Z,2.2
2023-01-18T05:42:17.238Z,2.4
2023-01-18T05:45:19.195Z,2
2023-01-18T05:48:21.167Z,2.1
2023-01-18T05:51:23.143Z,2.7
2023-01-18T05:54:25.124Z,2.2
2023-01-18T05:57:27.045Z,2.3
2023-01-18T06:00:28.996Z,2.3
2023-01-18T06:03:30.942Z,2.1
2023-01-18T06:06:34.635Z,2.5
2023-01-18T06:09:35.065Z,2.5
2023-01-18T06:12:37.112Z,2
2023-01-18T06:15:38.887Z,2.1
2023-01-18T06:18:40.843Z,2.1
2023-01-18T06:21:42.791Z,2.2
2023-01-18T06:24:44.765Z,1.9
2023-01-18T06:27:46.744Z,2
2023-01-18T06:30:48.776Z,2.2
2023-01-18T06:33:50.640Z,2
2023-01-18T06:36:52.603Z,2.3
2023-01-18T06:39:54.573Z,2.1
2023-01-18T06:42:57.028Z,1.9
2023-01-18T06:45:58.552Z,2.4
2023-01-18T06:49:00.465Z,2.3
2023-01-18T06:52:02.414Z,1.7
2023-01-18T06:55:04.372Z,2.1
2023-01-18T06:58:06.429Z,2.1
2023-01-18T07:01:08.511Z,2.1
2023-01-18T07:04:10.401Z,2.3
2023-01-18T07:07:12.352Z,2.3
2023-01-18T07:10:16.310Z,2.3
2023-01-18T07:13:16.302Z,1.9
2023-01-18T07:16:18.369Z,2.3
2023-01-18T07:19:20.205Z,2.4
2023-01-18T07:22:22.168Z,2.2
2023-01-18T07:25:24.124Z,2
2023-01-18T07:28:26.096Z,2.3
2023-01-18T07:31:28.139Z,2.1
2023-01-18T07:34:30.016Z,2.2
2023-01-18T07:37:31.959Z,1.9
2023-01-18T07:40:33.921Z,2.7
2023-01-18T07:43:35.892Z,2.4
2023-01-18T07:46:37.850Z,2.5
2023-01-18T07:49:39.803Z,2.6
2023-01-18T07:52:41.781Z,2.9
2023-01-18T07:55:43.755Z,2.4
2023-01-18T07:58:45.716Z,2.7
2023-01-18T08:01:47.740Z,2.9
2023-01-18T08:04:49.637Z,3.3
2023-01-18T08:07:51.597Z,2.7
2023-01-18T08:10:53.564Z,3
2023-01-18T08:13:55.510Z,3
2023-01-18T08:16:57.465Z,3
2023-01-18T08:19:59.442Z,3.7
2023-01-18T08:23:01.556Z,2.4
2023-01-18T08:26:03.381Z,2.8
2023-01-18T08:29:05.342Z,3
2023-01-18T08:32:07.296Z,2.9
2023-01-18T08:35:09.448Z,3.3
2023-01-18T08:38:11.233Z,2.9
2023-01-18T08:41:13.170Z,3.5
2023-01-18T08:44:15.156Z,3
2023-01-18T08:47:17.107Z,3.1
2023-01-18T08:50:19.085Z,3.1
2023-01-18T08:53:21.052Z,3.8
2023-01-18T08:56:26.237Z,2.9
2023-01-18T08:59:28.246Z,3.3
2023-01-18T09:02:30.229Z,3.7
2023-01-18T09:05:32.162Z,3.4
2023-01-18T09:08:34.113Z,3.4
2023-01-18T09:11:36.103Z,4
2023-01-18T09:14:38.043Z,3.5
2023-01-18T09:17:40.023Z,3.5
2023-01-18T09:20:41.997Z,3.5
2023-01-18T09:23:43.980Z,4.1
2023-01-18T09:26:45.940Z,3.8
2023-01-18T09:29:47.900Z,3.6
2023-01-18T09:32:49.877Z,3.7
2023-01-18T09:35:51.824Z,3.6
2023-01-18T09:38:53.793Z,3.1
2023-01-18T09:41:55.758Z,3
2023-01-18T09:44:57.710Z,3.3
2023-01-18T09:47:59.674Z,3.5
2023-01-18T09:51:01.679Z,3.3
2023-01-18T09:54:03.628Z,3.1
2023-01-18T09:57:05.614Z,3.3
2023-01-18T10:00:07.539Z,3.1
2023-01-18T10:03:09.686Z,3.2
2023-01-18T10:06:11.488Z,2.8
2023-01-18T10:09:13.439Z,2.4
2023-01-18T10:12:15.391Z,2.7
2023-01-18T10:15:17.439Z,2.4
2023-01-18T10:18:19.327Z,2.6
2023-01-18T10:21:21.364Z,2.8
2023-01-18T10:24:23.358Z,2.1
2023-01-18T10:27:25.256Z,2.5
2023-01-18T10:30:27.218Z,2.6
2023-01-18T10:33:29.183Z,2.1
2023-01-18T10:36:31.211Z,1.9
2023-01-18T10:39:33.163Z,2
2023-01-18T10:42:35.120Z,2.1
2023-01-18T10:45:37.179Z,2.1
2023-01-18T10:48:39.025Z,2.3
2023-01-18T10:51:41.077Z,2.1
2023-01-18T10:54:43.017Z,1.9
2023-01-18T10:57:44.978Z,2.5
2023-01-18T11:00:47.078Z,2.6
2023-01-18T11:03:51.299Z,2.3
2023-01-18T11:06:51.113Z,2.4
2023-01-18T11:09:55.682Z,2.2
2023-01-18T11:12:55.342Z,2.1
2023-01-18T11:15:57.297Z,2.2
2023-01-18T11:18:59.252Z,1.9
2023-01-18T11:22:01.227Z,2.3
2023-01-18T11:25:03.208Z,2
2023-01-18T11:28:05.177Z,1.8
2023-01-18T11:31:07.133Z,1.5
2023-01-18T11:34:09.078Z,1.4
2023-01-18T11:37:11.046Z,1.6
2023-01-18T11:40:13.003Z,1.9
2023-01-18T11:43:14.995Z,2
2023-01-18T11:46:16.948Z,1.9
2023-01-18T11:49:18.871Z,1.7
2023-01-18T11:52:20.883Z,2.1
2023-01-18T11:55:22.813Z,1.7
2023-01-18T11:58:24.775Z,1.7
2023-01-18T12:01:26.757Z,2
2023-01-18T12:04:28.689Z,1.7
2023-01-18T12:07:30.682Z,2.2
2023-01-18T12:10:32.620Z,1.9
2023-01-18T12:13:34.586Z,1.9
2023-01-18T12:16:36.658Z,1.9
2023-01-18T12:19:38.517Z,2.1
2023-01-18T12:22:40.532Z,2.2
2023-01-18T12:25:42.474Z,1.8
2023-01-18T12:28:44.435Z,1.7
2023-01-18T12:31:46.441Z,1.8
2023-01-18T12:34:48.390Z,1.9
2023-01-18T12:37:50.371Z,1.8
2023-01-18T12:40:52.333Z,1.6
2023-01-18T12:43:55.700Z,1.7
2023-01-18T12:46:56.257Z,2.2
2023-01-18T12:49:58.216Z,2
2023-01-18T12:53:00.191Z,1.8
2023-01-18T12:56:03.991Z,2.2
2023-01-18T12:59:04.382Z,1.7
2023-01-18T13:02:06.355Z,2.1
2023-01-18T13:05:08.279Z,2.2
2023-01-18T13:08:10.377Z,2.1
2023-01-18T13:11:12.209Z,3
2023-01-18T13:14:14.165Z,4.7
2023-01-18T13:17:16.122Z,3.3
2023-01-18T13:20:18.094Z,4.7
2023-01-18T13:23:20.030Z,4.9
2023-01-18T13:26:22.006Z,5.3
2023-01-18T13:29:23.978Z,5.1
2023-01-18T13:32:25.923Z,5
2023-01-18T13:35:27.895Z,5.1
2023-01-18T13:38:40.457Z,5
2023-01-18T13:41:31.850Z,5.1
2023-01-18T13:44:33.809Z,4.1
2023-01-18T13:47:35.812Z,5.3
2023-01-18T13:50:37.745Z,5.4
2023-01-18T13:53:39.691Z,4.8
2023-01-18T13:56:41.646Z,4.8
2023-01-18T13:59:43.596Z,4.8
2023-01-18T14:02:45.576Z,4.7
2023-01-18T14:05:47.521Z,4.9
2023-01-18T14:08:49.478Z,4.4
2023-01-18T14:11:51.430Z,4.6
2023-01-18T14:14:53.417Z,4.5
2023-01-18T14:17:58.734Z,5.1
2023-01-18T14:20:57.452Z,5.1
2023-01-18T14:23:59.325Z,4.3
2023-01-18T14:27:01.285Z,3.9
2023-01-18T14:30:03.253Z,3.8
2023-01-18T14:33:05.223Z,3.6
2023-01-18T14:36:07.245Z,4.1
2023-01-18T14:39:09.157Z,4.1
2023-01-18T14:42:11.108Z,3.8
2023-01-18T14:45:13.080Z,4.1
2023-01-18T14:48:15.065Z,4
2023-01-18T14:51:17.034Z,4.6
2023-01-18T14:54:18.991Z,4.4
2023-01-18T14:57:20.961Z,4.2
2023-01-18T15:00:22.896Z,4.2
2023-01-18T15:03:24.904Z,4.7
2023-01-18T15:06:26.868Z,5.3
2023-01-18T15:09:28.780Z,5.4
2023-01-18T15:12:30.758Z,4.8
2023-01-18T15:15:32.689Z,4.9
2023-01-18T15:18:34.661Z,5.2
2023-01-18T15:21:36.637Z,5.6
2023-01-18T15:24:38.603Z,4.9
2023-01-18T15:27:42.211Z,5.5
2023-01-18T15:30:42.523Z,6
2023-01-18T15:33:44.486Z,5.9
2023-01-18T15:36:46.531Z,6.1
2023-01-18T15:39:48.471Z,5.2
2023-01-18T15:42:50.424Z,5.6
2023-01-18T15:45:52.471Z,6.4
2023-01-18T15:48:54.398Z,6.6
2023-01-18T15:51:56.356Z,6.7
2023-01-18T15:54:58.351Z,5.4
2023-01-18T15:58:00.713Z,7.4
2023-01-18T16:01:02.352Z,6.5
2023-01-18T16:04:04.187Z,7.3
2023-01-18T16:07:06.141Z,6.3
2023-01-18T16:10:08.113Z,7.8
2023-01-18T16:13:10.057Z,7.2
2023-01-18T16:16:12.053Z,7.7
2023-01-18T16:19:13.990Z,6.8
2023-01-18T16:22:16.047Z,8.2
2023-01-18T16:25:17.975Z,7.9
2023-01-18T16:28:19.932Z,8.3
2023-01-18T16:31:22.867Z,7
2023-01-18T16:34:24.039Z,6.9
2023-01-18T16:37:26.029Z,7.7
2023-01-18T16:40:27.976Z,8
2023-01-18T16:43:29.967Z,7.3
2023-01-18T16:46:31.915Z,7.7
2023-01-18T16:49:33.879Z,7.6
2023-01-18T16:52:35.850Z,8.2
2023-01-18T16:55:37.819Z,7.2
2023-01-18T16:58:39.831Z,7.8
2023-01-18T17:01:41.962Z,7.6
2023-01-18T17:04:43.869Z,8.1
2023-01-18T17:07:45.829Z,8
2023-01-18T17:10:47.910Z,7.6
2023-01-18T17:13:49.851Z,6.9
2023-01-18T17:16:51.849Z,7.7
2023-01-18T17:19:53.820Z,7.7
2023-01-18T17:22:55.772Z,8.4
2023-01-18T17:25:57.755Z,7.6
2023-01-18T17:28:59.734Z,7.8
2023-01-18T17:32:01.678Z,7.6
2023-01-18T17:35:03.626Z,6.9
2023-01-18T17:38:11.684Z,7.4
2023-01-18T17:41:11.295Z,7.3
2023-01-18T17:44:09.534Z,7.2
2023-01-18T17:47:11.493Z,6.3
2023-01-18T17:50:13.433Z,6.6
2023-01-18T17:53:15.386Z,6.3
2023-01-18T17:56:20.636Z,7
2023-01-18T17:59:22.700Z,6.8
2023-01-18T18:02:24.717Z,6.3
2023-01-18T18:05:26.581Z,5.7
2023-01-18T18:08:28.543Z,5.6
2023-01-18T18:11:30.621Z,5.8
2023-01-18T18:14:35.372Z,5.5
2023-01-18T18:17:37.355Z,5.9
2023-01-18T18:20:39.319Z,5.8
2023-01-18T18:23:41.498Z,6.9
2023-01-18T18:26:43.458Z,7.1
2023-01-18T18:29:45.434Z,6.3
2023-01-18T18:32:47.391Z,6.3
2023-01-18T18:35:49.362Z,6.3
2023-01-18T18:38:51.329Z,6.6
2023-01-18T18:41:53.291Z,7.1
2023-01-18T18:44:55.253Z,5.8
2023-01-18T18:47:57.223Z,6.4
2023-01-18T18:50:59.186Z,6.6
2023-01-18T18:54:01.157Z,6.9
2023-01-18T18:57:03.100Z,6.9
2023-01-18T19:00:05.065Z,6.7
2023-01-18T19:03:07.468Z,6.4
2023-01-18T19:06:08.985Z,7.1
2023-01-18T19:09:10.978Z,7.4
2023-01-18T19:12:12.933Z,7.2
2023-01-18T19:15:14.904Z,7.4
2023-01-18T19:18:16.854Z,6.6
2023-01-18T19:21:18.813Z,6.4
2023-01-18T19:24:20.731Z,7.9
2023-01-18T19:27:22.731Z,6.3
2023-01-18T19:30:24.683Z,6.3
2023-01-18T19:33:26.641Z,7.2
2023-01-18T19:36:28.610Z,7.5
2023-01-18T19:39:30.554Z,6.6
2023-01-18T19:42:32.516Z,7.3
2023-01-18T19:45:34.472Z,6.8
2023-01-18T19:48:36.445Z,7.2
2023-01-18T19:51:38.404Z,6.9
2023-01-18T19:54:40.667Z,7.1
2023-01-18T19:57:42.370Z,7.4
2023-01-18T20:00:44.368Z,6.9
2023-01-18T20:03:46.295Z,8
2023-01-18T20:06:48.315Z,7
2023-01-18T20:09:50.266Z,7.5
2023-01-18T20:12:52.221Z,7.6
2023-01-18T20:15:54.162Z,7.6
2023-01-18T20:18:56.166Z,7.3
2023-01-18T20:21:58.102Z,7.2
2023-01-18T20:25:00.089Z,7.6
2023-01-18T20:28:02.075Z,8
2023-01-18T20:31:04.005Z,7.6
2023-01-18T20:34:05.954Z,6.3
2023-01-18T20:37:08.040Z,7.2
2023-01-18T20:40:09.875Z,6.6
2023-01-18T20:43:11.836Z,8.1
2023-01-18T20:46:13.868Z,7.1
2023-01-18T20:49:15.776Z,7.5
2023-01-18T20:52:17.717Z,6.2
2023-01-18T20:55:19.709Z,6.7
2023-01-18T20:58:21.695Z,6.3
2023-01-18T21:01:23.795Z,6.6
2023-01-18T21:04:25.627Z,6.3
2023-01-18T21:07:27.561Z,7.1
2023-01-18T21:10:29.545Z,6.6
2023-01-18T21:13:31.509Z,7.6
2023-01-18T21:16:33.533Z,7.5
2023-01-18T21:19:35.425Z,7.5
2023-01-18T21:22:37.415Z,6.7
2023-01-18T21:25:39.354Z,7.6
2023-01-18T21:28:41.328Z,7.2
2023-01-18T21:31:43.361Z,8
2023-01-18T21:34:45.237Z,7.6
2023-01-18T21:37:47.196Z,7.6
2023-01-18T21:40:49.165Z,7
2023-01-18T21:43:51.128Z,8
2023-01-18T21:46:53.114Z,7.9
2023-01-18T21:50:16.349Z,8
2023-01-18T21:52:57.046Z,8.3
2023-01-18T21:55:59.031Z,7.8
2023-01-18T21:59:01.028Z,9.1
2023-01-18T22:02:03.077Z,9.2
2023-01-18T22:05:04.956Z,8.8
2023-01-18T22:08:06.891Z,9.3
2023-01-18T22:11:08.856Z,8.8
2023-01-18T22:14:10.799Z,8.1
2023-01-18T22:17:12.783Z,8.6
2023-01-18T22:20:14.756Z,8
2023-01-18T22:23:16.697Z,8.4
2023-01-18T22:26:18.654Z,8.4
2023-01-18T22:29:20.647Z,7.4
2023-01-18T22:32:22.586Z,8.1
2023-01-18T22:35:24.545Z,7.6
2023-01-18T22:38:26.519Z,9.5
2023-01-18T22:41:28.477Z,8.5
2023-01-18T22:44:30.445Z,8.3
2023-01-18T22:47:32.416Z,8.1
2023-01-18T22:50:34.379Z,8.7
2023-01-18T22:53:36.354Z,9.1
2023-01-18T22:56:38.321Z,7.6
2023-01-18T22:59:40.276Z,8.7
2023-01-18T23:02:42.225Z,8.8
2023-01-18T23:05:44.190Z,7.7
2023-01-18T23:08:46.171Z,8.2
2023-01-18T23:11:48.124Z,8.5
2023-01-18T23:14:50.080Z,8.5
2023-01-18T23:17:52.023Z,8.2
2023-01-18T23:20:54.024Z,8.4
2023-01-18T23:23:55.999Z,8
2023-01-18T23:26:57.961Z,7.7
2023-01-18T23:29:59.975Z,8.2
2023-01-18T23:33:01.896Z,9.3
2023-01-18T23:36:03.866Z,7.9
2023-01-18T23:39:05.821Z,8.9
2023-01-18T23:42:07.796Z,7.9
2023-01-18T23:45:09.774Z,9.2
2023-01-18T23:48:11.730Z,8.6
2023-01-18T23:51:13.672Z,7.9
2023-01-18T23:54:15.666Z,8.2
2023-01-18T23:57:17.587Z,8.8
